Time;durP1;ratioP1;P1;durP2;ratioP2;P2;SDS_P1;SDS_P2;PMS_P1;PMS_P2;Temp;Humidity;BMP_temperature;BMP_pressure;BME280_temperature;BME280_humidity;BME280_pressure;Samples;Min_cycle;Max_cycle;Signal;HPM_P1;HPM_P2
2022/12/07 00:00:14;;;;;;;20.20;9.60;;;;;;;5.61;96.72;94634.44;5136882;27;20216;-74
2022/12/07 00:02:41;;;;;;;18.35;8.88;;;;;;;5.61;96.80;94631.75;5140621;27;20223;-74
2022/12/07 00:05:08;;;;;;;22.50;8.73;;;;;;;5.63;96.61;94632.25;5133768;27;20685;-74
2022/12/07 00:07:35;;;;;;;9.80;6.18;;;;;;;5.61;96.73;94642.50;5139882;27;20905;-74
2022/12/07 00:10:04;;;;;;;19.25;9.05;;;;;;;5.65;96.58;94638.13;5134423;27;20253;-75
2022/12/07 00:12:31;;;;;;;13.90;6.47;;;;;;;5.56;96.68;94631.84;5140751;27;20224;-74
2022/12/07 00:14:57;;;;;;;14.15;7.45;;;;;;;5.51;96.84;94636.50;5148154;27;20208;-74
2022/12/07 00:17:24;;;;;;;27.50;8.75;;;;;;;5.45;97.02;94619.69;5145721;27;20260;-73
2022/12/07 00:19:51;;;;;;;14.32;8.07;;;;;;;5.43;97.32;94624.56;5141012;27;20200;-74
2022/12/07 00:22:17;;;;;;;13.85;8.32;;;;;;;5.42;97.70;94628.34;5142488;27;20664;-74
2022/12/07 00:24:44;;;;;;;20.08;8.57;;;;;;;5.34;97.92;94619.06;5135091;27;20684;-73
2022/12/07 00:27:12;;;;;;;18.33;8.77;;;;;;;5.46;97.13;94615.94;5146443;27;20245;-74
2022/12/07 00:29:39;;;;;;;20.75;10.02;;;;;;;5.51;96.86;94623.06;5141312;27;20207;-74
2022/12/07 00:32:06;;;;;;;17.35;8.77;;;;;;;5.39;98.24;94628.13;5141795;27;20278;-73
2022/12/07 00:34:33;;;;;;;14.48;6.72;;;;;;;5.38;97.76;94621.97;5147768;27;20209;-75
2022/12/07 00:36:59;;;;;;;24.23;9.82;;;;;;;5.40;98.40;94633.22;5146641;27;20802;-74
2022/12/07 00:39:26;;;;;;;19.05;8.85;;;;;;;5.35;98.83;94633.28;5140122;27;20662;-73
2022/12/07 00:41:53;;;;;;;16.40;9.13;;;;;;;5.38;98.33;94632.69;5141311;27;20253;-74
2022/12/07 00:44:21;;;;;;;19.25;8.73;;;;;;;5.38;98.16;94616.59;5147708;27;20201;-74
2022/12/07 00:46:48;;;;;;;17.20;8.95;;;;;;;5.34;98.45;94631.69;5146744;27;20942;-73
2022/12/07 00:49:14;;;;;;;15.75;7.35;;;;;;;5.18;98.75;94622.31;5133848;27;20253;-74
2022/12/07 00:51:41;;;;;;;25.55;9.32;;;;;;;4.97;99.66;94622.63;5146380;27;20226;-74
2022/12/07 00:54:08;;;;;;;15.38;8.05;;;;;;;4.98;100.00;94618.84;5133601;27;20208;-74
2022/12/07 00:56:35;;;;;;;14.80;9.30;;;;;;;4.89;100.00;94625.19;5146960;27;20249;-73
2022/12/07 00:59:04;;;;;;;18.55;10.90;;;;;;;4.74;100.00;94620.03;5140420;27;20192;-74
2022/12/07 01:01:34;;;;;;;15.30;8.63;;;;;;;4.84;100.00;94618.00;5139949;27;20201;-74
2022/12/07 01:04:01;;;;;;;17.55;8.07;;;;;;;4.94;100.00;94628.56;5133793;27;20266;-74
2022/12/07 01:06:28;;;;;;;13.88;7.30;;;;;;;5.04;100.00;94629.53;5133903;27;20288;-74
2022/12/07 01:08:55;;;;;;;13.98;6.95;;;;;;;4.97;100.00;94622.63;5145504;27;20261;-74
2022/12/07 01:11:24;;;;;;;18.33;7.15;;;;;;;5.23;100.00;94624.91;5147188;27;20261;-74
2022/12/07 01:13:52;;;;;;;16.98;7.68;;;;;;;5.21;100.00;94621.69;5141028;27;20632;-74
2022/12/07 01:16:20;;;;;;;15.27;8.68;;;;;;;5.13;100.00;94614.31;5139699;27;20925;-74
2022/12/07 01:18:50;;;;;;;14.23;7.00;;;;;;;5.31;99.97;94608.94;5144983;27;20356;-74
2022/12/07 01:21:20;;;;;;;17.52;7.78;;;;;;;5.29;99.96;94613.00;5135303;27;20205;-74
2022/12/07 01:23:47;;;;;;;17.35;8.15;;;;;;;5.27;99.87;94604.44;5142389;27;20189;-73
2022/12/07 01:26:16;;;;;;;16.02;7.88;;;;;;;5.32;99.53;94602.47;5133053;27;20220;-74
2022/12/07 01:28:43;;;;;;;17.35;8.55;;;;;;;5.29;99.24;94602.25;5143592;27;20413;-74
2022/12/07 01:31:14;;;;;;;19.33;8.30;;;;;;;5.17;100.00;94599.25;5139761;27;20229;-74
2022/12/07 01:33:43;;;;;;;19.15;7.45;;;;;;;5.13;100.00;94598.22;5142026;27;20220;-74
2022/12/07 01:36:15;;;;;;;14.30;7.80;;;;;;;5.22;99.89;94597.25;5146045;27;20301;-74
2022/12/07 01:38:42;;;;;;;10.93;6.32;;;;;;;5.21;99.83;94601.03;5145464;27;20647;-73
2022/12/07 01:41:09;;;;;;;15.20;7.80;;;;;;;5.08;99.97;94592.91;5138952;27;20708;-73
2022/12/07 01:43:37;;;;;;;14.30;7.68;;;;;;;5.10;100.00;94604.16;5140042;27;20201;-73
2022/12/07 01:46:05;;;;;;;14.95;7.78;;;;;;;5.11;100.00;94603.06;5146435;27;20720;-74
2022/12/07 01:48:35;;;;;;;17.60;7.05;;;;;;;5.13;100.00;94601.69;5132675;27;20228;-73
2022/12/07 01:51:05;;;;;;;12.77;7.78;;;;;;;5.12;100.00;94602.78;5139860;27;20265;-73
2022/12/07 01:53:36;;;;;;;17.88;8.18;;;;;;;5.18;100.00;94607.00;5138527;27;20232;-73
2022/12/07 01:56:04;;;;;;;17.95;7.78;;;;;;;5.13;100.00;94593.66;5143563;27;20239;-73
2022/12/07 01:58:31;;;;;;;12.75;6.97;;;;;;;5.19;99.66;94597.06;5145628;27;20208;-75
2022/12/07 02:00:58;;;;;;;16.23;8.27;;;;;;;5.23;99.69;94588.09;5141220;27;20200;-73
2022/12/07 02:03:31;;;;;;;13.10;7.38;;;;;;;5.29;99.78;94575.41;5139000;27;20238;-73
2022/12/07 02:05:59;;;;;;;23.05;7.93;;;;;;;5.24;99.25;94578.16;5142604;27;20199;-74
2022/12/07 02:08:26;;;;;;;20.85;9.25;;;;;;;5.25;98.96;94575.19;5145519;27;20205;-73
2022/12/07 02:10:56;;;;;;;12.23;7.18;;;;;;;5.24;98.95;94572.78;5131714;27;20269;-73
2022/12/07 02:13:26;;;;;;;17.67;8.88;;;;;;;5.16;99.55;94582.31;5145485;27;20244;-73
2022/12/07 02:16:19;;;;;;;9.30;6.68;;;;;;;4.86;100.00;94582.81;5142740;27;20892;-74
2022/12/07 02:18:54;;;;;;;21.05;9.68;;;;;;;4.72;100.00;94585.44;5139998;27;20252;-74
2022/12/07 02:21:30;;;;;;;20.33;8.18;;;;;;;4.77;100.00;94592.63;5135729;27;20200;-73
2022/12/07 02:24:19;;;;;;;19.42;9.57;;;;;;;4.95;100.00;94587.22;5132280;27;20185;-74
2022/12/07 02:27:29;;;;;;;23.63;9.00;;;;;;;4.97;100.00;94590.41;5131684;27;20589;-73
2022/12/07 02:30:01;;;;;;;14.07;7.13;;;;;;;5.10;100.00;94585.38;5137590;27;20237;-73
2022/12/07 02:32:40;;;;;;;15.95;9.68;;;;;;;5.08;100.00;94572.25;5138673;27;20212;-73
2022/12/07 02:35:12;;;;;;;19.00;8.35;;;;;;;5.18;100.00;94565.94;5142621;27;20733;-74
2022/12/07 02:37:43;;;;;;;17.05;7.65;;;;;;;5.16;100.00;94562.72;5145666;27;20197;-74
2022/12/07 02:40:19;;;;;;;20.80;8.60;;;;;;;5.21;100.00;94578.75;5141622;27;20233;-74
2022/12/07 02:42:56;;;;;;;20.45;7.85;;;;;;;5.14;100.00;94572.97;5138112;27;20196;-74
2022/12/07 02:45:28;;;;;;;20.27;8.82;;;;;;;4.97;100.00;94574.31;5138361;27;20238;-74
2022/12/07 02:47:59;;;;;;;12.45;6.35;;;;;;;4.88;100.00;94576.06;5138126;27;20549;-74
2022/12/07 02:50:27;;;;;;;17.48;8.52;;;;;;;4.82;100.00;94576.44;5151524;27;20199;-74
2022/12/07 02:52:54;;;;;;;16.48;7.65;;;;;;;4.72;100.00;94580.06;5142590;27;20228;-74
2022/12/07 02:55:26;;;;;;;15.95;7.10;;;;;;;4.78;100.00;94570.88;5145252;27;20729;-74
2022/12/07 02:58:08;;;;;;;20.65;7.30;;;;;;;4.84;100.00;94569.69;5142104;27;20241;-74
2022/12/07 03:00:47;;;;;;;13.60;6.38;;;;;;;4.75;99.94;94565.28;5137374;27;20196;-74
2022/12/07 03:03:15;;;;;;;20.88;7.38;;;;;;;4.60;100.00;94555.59;5137846;27;20193;-74
2022/12/07 03:05:55;;;;;;;11.18;6.75;;;;;;;4.59;100.00;94554.78;5143205;27;20200;-73
2022/12/07 03:08:29;;;;;;;17.75;7.68;;;;;;;4.58;100.00;94549.72;5134473;27;20252;-73
2022/12/07 03:10:59;;;;;;;12.30;6.80;;;;;;;4.63;100.00;94552.31;5140357;27;20648;-73
2022/12/07 03:13:30;;;;;;;21.63;8.82;;;;;;;4.63;100.00;94546.97;5145045;27;20281;-73
2022/12/07 03:16:05;;;;;;;16.00;6.93;;;;;;;4.43;100.00;94536.53;5130773;27;20204;-73
2022/12/07 03:18:38;;;;;;;13.65;6.97;;;;;;;4.56;100.00;94541.16;5130679;27;20643;-74
2022/12/07 03:21:10;;;;;;;12.68;8.10;;;;;;;4.58;100.00;94547.03;5144441;27;20208;-73
2022/12/07 03:23:42;;;;;;;13.45;6.45;;;;;;;4.55;100.00;94544.94;5130591;27;20588;-73
2022/12/07 03:26:13;;;;;;;10.88;6.50;;;;;;;4.70;100.00;94552.75;5144346;27;20448;-73
2022/12/07 03:28:45;;;;;;;19.80;7.72;;;;;;;4.59;100.00;94551.31;5130982;27;20193;-74
2022/12/07 03:31:17;;;;;;;15.80;6.07;;;;;;;4.53;100.00;94552.47;5144382;27;20655;-73
2022/12/07 03:33:50;;;;;;;9.48;5.35;;;;;;;4.56;100.00;94557.25;5141999;27;20213;-73
2022/12/07 03:36:24;;;;;;;17.55;7.82;;;;;;;4.62;100.00;94558.78;5137033;27;20235;-73
2022/12/07 03:38:58;;;;;;;8.52;5.47;;;;;;;4.59;100.00;94551.31;5137736;27;20265;-73
2022/12/07 03:41:27;;;;;;;15.73;7.00;;;;;;;4.45;100.00;94545.88;5138711;27;20192;-73
2022/12/07 03:43:56;;;;;;;13.55;6.03;;;;;;;4.36;100.00;94557.56;5137440;27;20254;-73
2022/12/07 03:46:30;;;;;;;12.07;6.38;;;;;;;4.41;100.00;94550.22;5142536;27;20197;-73
2022/12/07 03:49:05;;;;;;;9.27;5.75;;;;;;;4.34;100.00;94555.16;5151675;27;20468;-73
2022/12/07 03:51:39;;;;;;;13.88;5.93;;;;;;;4.36;100.00;94552.19;5155367;27;20199;-73
2022/12/07 03:54:12;;;;;;;13.40;8.07;;;;;;;4.46;100.00;94549.34;5142952;27;20209;-74
2022/12/07 03:56:40;;;;;;;15.70;8.15;;;;;;;4.44;100.00;94548.84;5134809;27;20181;-73
2022/12/07 03:59:08;;;;;;;12.15;6.30;;;;;;;4.41;100.00;94544.88;5141964;27;20866;-72
2022/12/07 04:01:36;;;;;;;14.63;6.50;;;;;;;4.41;100.00;94544.06;5140315;27;20253;-73
2022/12/07 04:04:03;;;;;;;14.65;6.97;;;;;;;4.37;100.00;94543.88;5142797;27;20601;-73
2022/12/07 04:06:30;;;;;;;12.00;7.07;;;;;;;4.40;100.00;94542.47;5140894;27;20265;-72
2022/12/07 04:08:57;;;;;;;18.45;7.90;;;;;;;4.45;100.00;94545.09;5146736;27;20257;-73
2022/12/07 04:11:23;;;;;;;12.40;6.57;;;;;;;4.48;100.00;94548.00;5135527;27;20239;-72
2022/12/07 04:16:36;;;;;;;13.07;7.43;;;;;;;4.38;100.00;94539.28;5138406;27;20229;-73
2022/12/07 04:19:02;;;;;;;16.27;6.47;;;;;;;4.42;100.00;94534.94;5143107;27;20250;-73
2022/12/07 04:21:29;;;;;;;23.05;7.50;;;;;;;4.49;100.00;94540.75;5147704;27;20246;-73
2022/12/07 04:23:56;;;;;;;18.60;5.95;;;;;;;4.48;100.00;94545.31;5133738;27;20193;-72
2022/12/07 04:26:23;;;;;;;9.70;4.90;;;;;;;4.40;100.00;94547.81;5147512;27;20595;-73
2022/12/07 04:28:49;;;;;;;10.00;5.90;;;;;;;4.37;100.00;94543.06;5133900;27;20257;-73
2022/12/07 04:31:16;;;;;;;12.80;6.35;;;;;;;4.33;100.00;94544.72;5147749;27;20204;-73
2022/12/07 04:33:44;;;;;;;24.63;6.95;;;;;;;4.20;100.00;94538.22;5146098;27;20281;-73
2022/12/07 04:36:11;;;;;;;8.05;4.82;;;;;;;4.25;100.00;94544.28;5140227;27;20232;-73
2022/12/07 04:38:38;;;;;;;9.88;5.45;;;;;;;4.26;100.00;94548.56;5141648;27;20201;-73
2022/12/07 04:41:06;;;;;;;18.42;9.00;;;;;;;4.28;100.00;94554.44;5138839;27;20200;-73
2022/12/07 04:43:33;;;;;;;9.60;5.63;;;;;;;4.31;100.00;94549.56;5140853;27;20288;-73
2022/12/07 04:46:00;;;;;;;15.50;7.60;;;;;;;4.23;100.00;94551.84;5147334;27;20200;-73
2022/12/07 04:48:27;;;;;;;8.68;5.63;;;;;;;4.20;100.00;94555.09;5146353;27;20200;-72
2022/12/07 04:50:55;;;;;;;12.45;7.00;;;;;;;4.16;100.00;94551.38;5147272;27;20201;-73
2022/12/07 04:53:22;;;;;;;9.75;5.03;;;;;;;4.23;100.00;94554.53;5133329;27;20227;-73
2022/12/07 04:55:49;;;;;;;8.43;5.65;;;;;;;4.22;100.00;94552.94;5138518;27;20188;-71
2022/12/07 04:58:16;;;;;;;11.80;5.47;;;;;;;4.14;100.00;94558.91;5136567;27;20204;-71
2022/12/07 05:00:43;;;;;;;7.28;3.95;;;;;;;4.17;100.00;94549.50;5140889;27;20250;-71
2022/12/07 05:03:10;;;;;;;11.32;6.20;;;;;;;4.06;100.00;94543.50;5141098;27;20208;-70
2022/12/07 05:05:36;;;;;;;11.77;5.28;;;;;;;4.04;100.00;94550.22;5138057;27;20198;-70
2022/12/07 05:08:05;;;;;;;9.50;4.45;;;;;;;3.94;100.00;94545.78;5141459;27;20593;-69
2022/12/07 05:10:31;;;;;;;11.95;6.10;;;;;;;3.90;100.00;94552.81;5140329;27;20189;-70
2022/12/07 05:12:58;;;;;;;8.60;5.32;;;;;;;3.85;100.00;94555.53;5142132;27;20684;-70
2022/12/07 05:15:25;;;;;;;10.45;6.47;;;;;;;3.85;100.00;94556.34;5139472;27;20201;-71
2022/12/07 05:17:52;;;;;;;13.32;6.80;;;;;;;3.83;100.00;94557.69;5138942;27;20193;-69
2022/12/07 05:20:19;;;;;;;11.55;5.82;;;;;;;3.98;100.00;94564.75;5140867;27;20193;-70
2022/12/07 05:22:45;;;;;;;11.93;6.55;;;;;;;4.00;100.00;94555.34;5140743;27;20256;-70
2022/12/07 05:25:13;;;;;;;28.33;9.98;;;;;;;4.12;100.00;94547.69;5137202;27;20691;-72
2022/12/07 05:27:40;;;;;;;9.05;5.53;;;;;;;4.15;100.00;94547.09;5140937;27;20193;-73
2022/12/07 05:30:08;;;;;;;21.48;9.23;;;;;;;4.12;100.00;94557.59;5149800;27;20197;-72
2022/12/07 05:32:35;;;;;;;9.90;5.05;;;;;;;3.91;100.00;94554.41;5142831;27;20249;-72
2022/12/07 05:35:02;;;;;;;10.13;5.95;;;;;;;4.06;100.00;94561.44;5140020;27;20302;-73
2022/12/07 05:37:28;;;;;;;12.18;6.63;;;;;;;4.00;100.00;94555.34;5150234;27;20204;-73
2022/12/07 05:39:55;;;;;;;10.23;6.70;;;;;;;4.09;100.00;94553.63;5152615;27;20863;-73
2022/12/07 05:42:23;;;;;;;15.68;7.28;;;;;;;4.07;100.00;94544.28;5151352;27;20200;-74
2022/12/07 05:44:50;;;;;;;14.30;6.22;;;;;;;4.07;100.00;94539.72;5150667;27;20204;-73
2022/12/07 05:47:17;;;;;;;16.23;6.40;;;;;;;4.09;100.00;94542.13;5152213;27;20212;-74
2022/12/07 05:49:44;;;;;;;10.98;6.18;;;;;;;4.15;100.00;94541.75;5152264;27;20253;-74
2022/12/07 05:52:10;;;;;;;18.50;6.20;;;;;;;4.23;100.00;94537.63;5135028;27;20207;-73
2022/12/07 05:54:37;;;;;;;14.95;8.13;;;;;;;4.16;100.00;94543.34;5131302;27;20232;-73
2022/12/07 05:57:04;;;;;;;11.55;6.60;;;;;;;4.19;100.00;94548.13;5145659;27;20207;-73
2022/12/07 05:59:31;;;;;;;14.25;6.15;;;;;;;4.18;100.00;94546.53;5131915;27;20257;-73
2022/12/07 06:02:00;;;;;;;13.48;6.07;;;;;;;4.26;100.00;94537.84;5131642;27;20205;-73
2022/12/07 06:04:29;;;;;;;14.68;7.40;;;;;;;4.13;100.00;94543.91;5131329;27;20683;-73
2022/12/07 06:06:56;;;;;;;12.35;6.93;;;;;;;4.17;100.00;94544.16;5131504;27;20614;-73
2022/12/07 06:09:24;;;;;;;16.60;5.38;;;;;;;4.02;100.00;94539.78;5130931;27;20205;-73
2022/12/07 06:14:51;;;;;;;11.27;7.72;;;;;;;4.09;100.00;94540.25;5063454;28;20304;-74
2022/12/07 06:17:18;;;;;;;20.35;9.52;;;;;;;4.20;100.00;94549.72;5066857;28;20207;-74
2022/12/07 06:19:44;;;;;;;15.65;8.20;;;;;;;4.37;100.00;94545.75;5095496;27;20205;-73
2022/12/07 06:22:12;;;;;;;19.73;8.73;;;;;;;4.38;100.00;94547.31;5131083;27;20201;-73
2022/12/07 06:24:39;;;;;;;10.40;6.85;;;;;;;4.35;100.00;94553.28;5131594;27;20224;-73
2022/12/07 06:27:06;;;;;;;13.52;6.13;;;;;;;4.40;100.00;94555.88;5131584;27;20201;-74
2022/12/07 06:29:32;;;;;;;11.30;6.70;;;;;;;4.62;100.00;94562.25;5131256;27;20197;-74
2022/12/07 06:32:01;;;;;;;14.23;5.90;;;;;;;4.75;100.00;94560.72;5130828;27;20257;-74
2022/12/07 06:34:28;;;;;;;17.65;7.85;;;;;;;4.91;100.00;94562.06;5130854;27;20240;-75
2022/12/07 06:36:55;;;;;;;15.45;8.30;;;;;;;5.12;100.00;94559.84;5141093;27;20269;-73
2022/12/07 06:39:24;;;;;;;8.70;5.30;;;;;;;5.16;100.00;94555.47;5134526;27;20205;-74
2022/12/07 06:41:52;;;;;;;24.25;10.60;;;;;;;5.24;100.00;94554.00;5141794;27;20256;-74
2022/12/07 06:44:19;;;;;;;23.50;9.52;;;;;;;5.36;99.86;94555.09;5133584;27;20318;-74
2022/12/07 06:46:46;;;;;;;16.50;6.35;;;;;;;5.45;99.24;94568.66;5142466;27;20200;-74
2022/12/07 06:49:14;;;;;;;13.38;6.95;;;;;;;5.55;98.46;94563.09;5131871;27;20250;-74
2022/12/07 06:51:41;;;;;;;14.43;6.30;;;;;;;5.61;97.97;94567.25;5142742;27;20204;-75
2022/12/07 06:54:08;;;;;;;12.70;6.32;;;;;;;8.08;100.00;94544.75;5151502;27;20228;-73
2022/12/07 06:56:35;;;;;;;15.18;8.85;;;;;;;7.61;100.00;94546.34;5148623;27;20192;-74
2022/12/07 06:59:02;;;;;;;10.95;6.78;;;;;;;7.87;100.00;94549.94;5151835;27;20655;-74
2022/12/07 07:01:29;;;;;;;20.13;8.52;;;;;;;6.62;100.00;94552.84;5143585;27;20196;-74
2022/12/07 07:03:56;;;;;;;20.02;8.13;;;;;;;6.53;100.00;94555.47;5140505;27;20213;-74
2022/12/07 07:06:24;;;;;;;22.70;8.35;;;;;;;6.36;100.00;94561.47;5129825;27;20247;-74
2022/12/07 07:08:51;;;;;;;18.25;8.55;;;;;;;6.26;100.00;94560.91;5129177;27;20197;-74
2022/12/07 07:11:18;;;;;;;20.50;6.50;;;;;;;5.98;100.00;94549.41;5129360;27;20250;-74
2022/12/07 07:13:45;;;;;;;33.42;9.70;;;;;;;5.66;99.70;94559.13;5131949;27;20229;-74
2022/12/07 07:16:12;;;;;;;5.85;4.13;;;;;;;5.89;100.00;94567.28;5129893;27;20243;-74
2022/12/07 07:18:39;;;;;;;19.27;7.88;;;;;;;5.87;98.71;94553.34;5129928;27;20611;-75
2022/12/07 07:21:06;;;;;;;19.73;7.75;;;;;;;5.78;98.46;94549.75;5129546;27;20205;-75
2022/12/07 07:23:34;;;;;;;18.08;9.75;;;;;;;5.75;99.52;94555.72;5141697;27;20640;-74
2022/12/07 07:26:01;;;;;;;13.88;8.50;;;;;;;6.05;98.83;94555.16;5129197;27;20293;-73
2022/12/07 07:28:28;;;;;;;23.92;10.57;;;;;;;6.26;98.32;94561.72;5129698;27;20234;-75
2022/12/07 07:30:54;;;;;;;16.73;8.75;;;;;;;6.24;97.38;94560.41;5129673;27;20267;-75
2022/12/07 07:33:21;;;;;;;15.00;8.48;;;;;;;6.31;97.08;94569.66;5129566;27;20273;-74
2022/12/07 07:35:48;;;;;;;23.15;8.00;;;;;;;6.32;95.94;94565.06;5129620;27;20301;-74
2022/12/07 07:38:15;;;;;;;19.05;8.40;;;;;;;6.36;95.95;94572.25;5137285;27;20639;-75
2022/12/07 07:40:43;;;;;;;26.55;11.38;;;;;;;6.53;94.98;94565.44;5135552;27;20220;-74
2022/12/07 07:43:10;;;;;;;23.00;11.27;;;;;;;6.58;94.88;94568.00;5128718;27;20209;-74
2022/12/07 07:45:36;;;;;;;22.27;8.50;;;;;;;6.54;95.49;94567.03;5129332;27;20676;-74
2022/12/07 07:48:03;;;;;;;14.60;7.45;;;;;;;6.81;94.71;94561.56;5129324;27;20205;-74
2022/12/07 07:50:30;;;;;;;21.00;9.32;;;;;;;6.91;93.86;94555.91;5133553;27;20230;-74
2022/12/07 07:52:58;;;;;;;14.55;7.82;;;;;;;7.14;92.92;94554.78;5129699;27;20208;-74
2022/12/07 07:55:24;;;;;;;20.75;9.55;;;;;;;7.07;92.15;94554.44;5128809;27;20229;-74
2022/12/07 07:57:52;;;;;;;17.33;8.40;;;;;;;7.34;92.09;94552.69;5128366;27;20233;-74
2022/12/07 08:00:20;;;;;;;12.75;6.30;;;;;;;7.34;90.68;94568.88;5129494;27;20209;-74
2022/12/07 08:02:46;;;;;;;17.10;9.05;;;;;;;7.35;89.94;94559.69;5129101;27;20672;-74
2022/12/07 08:05:14;;;;;;;34.85;14.82;;;;;;;7.40;89.52;94559.53;5129484;27;20200;-74
2022/12/07 08:07:41;;;;;;;16.17;7.82;;;;;;;7.33;89.76;94556.50;5129343;27;20609;-73
2022/12/07 08:10:11;;;;;;;14.40;6.97;;;;;;;7.34;90.16;94558.09;5129257;27;20201;-74
2022/12/07 08:13:10;;;;;;;11.57;7.55;;;;;;;7.56;89.38;94549.94;5128929;27;20814;-74
2022/12/07 08:15:29;;;;;;;49.53;8.82;;;;;;;7.60;88.64;94550.13;5128966;28;20301;-74
2022/12/07 08:17:56;;;;;;;15.55;8.85;;;;;;;7.45;88.67;94554.03;5128764;27;20607;-73
2022/12/07 08:20:23;;;;;;;20.27;8.00;;;;;;;7.56;88.03;94547.25;5129212;27;20349;-73
2022/12/07 08:22:50;;;;;;;16.05;8.32;;;;;;;7.64;88.11;94557.31;5130016;27;20209;-74
2022/12/07 08:25:17;;;;;;;15.50;6.85;;;;;;;7.69;87.32;94554.44;5128912;27;20719;-74
2022/12/07 08:27:44;;;;;;;19.42;9.07;;;;;;;7.48;87.23;94551.53;5142718;27;20204;-73
2022/12/07 08:30:11;;;;;;;16.70;8.60;;;;;;;7.69;87.45;94554.44;5128578;27;20659;-73
2022/12/07 08:32:39;;;;;;;18.60;9.15;;;;;;;7.99;85.77;94552.03;5129536;27;20254;-73
2022/12/07 08:35:07;;;;;;;13.82;7.55;;;;;;;7.89;85.85;94552.31;5132941;27;20245;-73
2022/12/07 08:37:34;;;;;;;20.85;7.40;;;;;;;7.71;86.33;94557.63;5133060;27;20201;-73
2022/12/07 08:40:00;;;;;;;13.77;6.80;;;;;;;7.24;87.67;94551.06;5142134;27;20204;-74
2022/12/07 08:42:29;;;;;;;20.23;7.93;;;;;;;7.54;87.30;94562.16;5136872;27;20205;-74
2022/12/07 08:44:57;;;;;;;36.03;15.02;;;;;;;7.60;87.48;94550.13;5133001;27;20299;-75
2022/12/07 08:47:24;;;;;;;20.50;9.57;;;;;;;7.45;87.33;94545.94;5132550;27;20291;-73
2022/12/07 08:49:54;;;;;;;22.70;9.90;;;;;;;7.34;87.39;94547.31;5134074;27;20220;-74
2022/12/07 08:52:21;;;;;;;21.70;8.85;;;;;;;7.60;87.14;94529.38;5139387;27;20207;-74
2022/12/07 08:54:48;;;;;;;15.70;6.95;;;;;;;7.98;86.53;94540.44;5140884;27;20565;-74
2022/12/07 08:57:15;;;;;;;24.02;9.23;;;;;;;8.01;85.90;94539.03;5132361;27;20231;-73
2022/12/07 08:59:42;;;;;;;17.88;9.30;;;;;;;8.09;84.83;94535.53;5132712;27;20295;-74
2022/12/07 09:02:09;;;;;;;20.05;7.82;;;;;;;8.18;85.03;94530.97;5132034;27;20567;-74
2022/12/07 09:04:36;;;;;;;16.25;6.82;;;;;;;8.12;84.67;94524.13;5131783;27;20193;-74
2022/12/07 09:07:04;;;;;;;16.83;7.68;;;;;;;8.00;85.36;94522.03;5132693;27;20246;-76
2022/12/07 09:09:31;;;;;;;22.83;8.60;;;;;;;7.71;85.62;94533.38;5132366;27;20291;-76
2022/12/07 09:11:58;;;;;;;13.65;7.47;;;;;;;7.82;85.84;94529.28;5132407;27;20205;-72
2022/12/07 09:14:25;;;;;;;16.48;7.90;;;;;;;8.09;85.76;94522.06;5132070;27;20229;-74
2022/12/07 09:16:51;;;;;;;16.00;7.82;;;;;;;8.24;84.30;94510.81;5132266;27;20257;-75
2022/12/07 09:19:18;;;;;;;26.98;9.23;;;;;;;8.04;84.56;94512.22;5131746;27;20207;-72
2022/12/07 09:21:45;;;;;;;21.27;9.52;;;;;;;7.81;84.82;94506.13;5132207;27;20213;-74
2022/12/07 09:24:14;;;;;;;15.95;7.40;;;;;;;7.73;85.75;94501.50;5132273;27;20707;-75
2022/12/07 09:26:41;;;;;;;17.48;7.55;;;;;;;7.88;86.02;94502.19;5132426;27;20216;-74
2022/12/07 09:29:08;;;;;;;13.80;8.05;;;;;;;7.99;84.80;94509.66;5145572;27;20658;-74
2022/12/07 09:31:37;;;;;;;19.77;7.72;;;;;;;8.13;83.76;94510.34;5132271;27;20262;-74
2022/12/07 09:34:05;;;;;;;19.65;9.63;;;;;;;8.21;83.71;94506.84;5131353;27;20258;-74
2022/12/07 09:36:32;;;;;;;14.35;7.05;;;;;;;8.03;84.01;94504.44;5131511;27;20330;-74
2022/12/07 09:38:59;;;;;;;15.30;7.35;;;;;;;7.69;84.85;94489.75;5131489;27;20250;-74
2022/12/07 09:41:29;;;;;;;19.48;7.50;;;;;;;7.51;85.52;94492.72;5132340;27;20209;-74
2022/12/07 09:44:06;;;;;;;22.15;8.35;;;;;;;7.67;85.55;94483.88;5131715;27;20756;-73
2022/12/07 09:46:37;;;;;;;18.70;8.52;;;;;;;7.70;85.15;94480.56;5131988;27;20197;-73
2022/12/07 09:49:05;;;;;;;22.35;8.38;;;;;;;7.55;85.42;94488.28;5113801;27;20276;-73
2022/12/07 09:51:32;;;;;;;19.58;9.15;;;;;;;7.40;86.21;94486.78;5135794;27;20213;-73
2022/12/07 09:54:00;;;;;;;25.55;12.38;;;;;;;7.31;87.74;94484.06;5130473;27;20744;-73
2022/12/07 09:56:31;;;;;;;10.73;6.13;;;;;;;7.75;86.13;94480.44;5130248;27;20692;-73
2022/12/07 09:59:01;;;;;;;12.73;5.75;;;;;;;7.86;85.12;94483.63;5131145;27;20229;-74
2022/12/07 10:01:30;;;;;;;17.88;8.13;;;;;;;8.03;84.89;94467.47;5131753;27;20303;-74
2022/12/07 10:04:07;;;;;;;16.05;8.15;;;;;;;8.27;83.72;94475.13;5130926;27;20247;-74
2022/12/07 10:06:34;;;;;;;16.42;8.38;;;;;;;8.53;83.12;94464.34;5131333;27;20284;-74
2022/12/07 10:09:01;;;;;;;23.38;9.57;;;;;;;9.00;82.19;94462.56;5131143;27;20209;-73
2022/12/07 10:11:29;;;;;;;19.55;9.10;;;;;;;9.03;80.39;94467.28;5132982;27;20220;-74
2022/12/07 10:13:56;;;;;;;15.20;6.60;;;;;;;8.64;80.95;94452.09;5141886;27;20204;-73
2022/12/07 10:16:38;;;;;;;18.83;10.13;;;;;;;8.92;81.25;94455.25;5131263;27;20239;-75
2022/12/07 10:19:25;;;;;;;12.38;7.07;;;;;;;8.89;80.61;94455.88;5142887;27;20248;-74
2022/12/07 10:22:05;;;;;;;27.30;14.07;;;;;;;9.42;79.64;94447.31;5131148;27;20253;-74
2022/12/07 10:24:33;;;;;;;17.17;9.05;;;;;;;9.62;77.81;94445.78;5130894;27;20311;-74
2022/12/07 10:27:01;;;;;;;14.77;6.90;;;;;;;9.63;77.55;94442.75;5131089;27;20201;-73
2022/12/07 10:29:31;;;;;;;29.98;14.25;;;;;;;10.01;76.64;94433.78;5130463;27;20672;-74
2022/12/07 10:32:00;;;;;;;26.48;13.20;;;;;;;10.20;76.03;94420.66;5130823;27;20716;-74
2022/12/07 10:34:29;;;;;;;20.15;10.13;;;;;;;10.34;74.59;94417.66;5130797;27;20201;-74
2022/12/07 10:37:14;;;;;;;19.40;8.80;;;;;;;9.98;76.28;94423.63;5131030;27;20197;-74
2022/12/07 10:39:43;;;;;;;15.80;7.70;;;;;;;10.17;75.37;94420.47;5138342;27;20204;-75
2022/12/07 10:42:20;;;;;;;23.17;8.27;;;;;;;10.12;75.83;94409.84;5151034;27;20679;-75
2022/12/07 10:44:49;;;;;;;17.13;7.45;;;;;;;9.81;74.91;94405.59;5151547;27;20204;-74
2022/12/07 10:47:26;;;;;;;15.73;7.43;;;;;;;10.03;75.78;94406.41;5151890;27;20252;-75
2022/12/07 10:50:18;;;;;;;22.75;8.55;;;;;;;9.99;75.75;94411.69;5150632;27;20200;-74
2022/12/07 10:53:27;;;;;;;29.10;13.52;;;;;;;9.72;76.11;94398.63;5130084;27;20220;-75
2022/12/07 10:56:28;;;;;;;15.50;7.70;;;;;;;9.72;76.37;94396.72;5052927;28;20582;-74
2022/12/07 10:59:07;;;;;;;15.32;5.85;;;;;;;9.73;75.87;94384.78;5148103;27;20212;-73
2022/12/07 11:01:42;;;;;;;12.25;6.47;;;;;;;9.42;76.88;94389.75;5135672;27;20233;-75
2022/12/07 11:04:22;;;;;;;12.63;6.20;;;;;;;9.62;76.69;94378.19;5130022;27;20205;-75
2022/12/07 11:06:58;;;;;;;16.15;7.40;;;;;;;9.97;75.63;94374.16;5130379;27;20211;-73
2022/12/07 11:09:45;;;;;;;15.10;6.53;;;;;;;9.91;74.77;94378.16;5130138;27;20201;-74
2022/12/07 11:12:21;;;;;;;15.73;7.43;;;;;;;9.65;76.15;94384.84;5137850;27;20267;-73
2022/12/07 11:14:57;;;;;;;14.68;7.88;;;;;;;9.70;76.14;94382.78;5150412;27;20211;-74
2022/12/07 11:17:35;;;;;;;16.85;7.70;;;;;;;9.58;75.76;94379.94;5133502;27;20196;-74
2022/12/07 11:20:07;;;;;;;12.95;6.57;;;;;;;9.61;75.97;94373.88;5143957;27;20197;-74
2022/12/07 11:22:43;;;;;;;14.10;5.88;;;;;;;9.46;76.50;94372.53;5129039;27;20205;-74
2022/12/07 11:25:23;;;;;;;10.18;5.57;;;;;;;9.19;77.33;94371.09;5128810;27;20228;-74
2022/12/07 11:28:03;;;;;;;12.35;7.18;;;;;;;9.26;77.48;94360.56;5130371;27;20597;-76
2022/12/07 11:30:40;;;;;;;20.58;8.65;;;;;;;9.20;77.72;94353.75;5129254;27;20203;-75
2022/12/07 11:33:19;;;;;;;14.65;7.78;;;;;;;9.26;77.82;94347.06;5130010;27;20257;-77
2022/12/07 11:36:02;;;;;;;14.18;7.20;;;;;;;9.36;77.34;94350.50;5129286;27;20293;-76
2022/12/07 11:38:37;;;;;;;11.50;6.50;;;;;;;9.41;77.24;94342.22;5129867;27;20204;-76
2022/12/07 11:41:13;;;;;;;21.65;7.85;;;;;;;9.19;77.90;94346.75;5128993;27;20663;-73
2022/12/07 11:43:53;;;;;;;27.40;12.20;;;;;;;9.38;77.18;94342.88;5129538;27;20281;-75
2022/12/07 11:46:25;;;;;;;12.05;5.90;;;;;;;9.33;77.07;94343.03;5129765;27;20200;-74